createdAt,value
2022-08-04T00:00:18.353Z,76.10
2022-08-04T00:03:15.932Z,76.63
2022-08-04T00:06:09.416Z,76.19
2022-08-04T00:08:44.636Z,76.03
2022-08-04T00:11:15.835Z,76.50
2022-08-04T00:13:58.019Z,76.31
2022-08-04T00:16:35.011Z,76.07
2022-08-04T00:19:10.861Z,76.39
2022-08-04T00:21:39.288Z,77.23
2022-08-04T00:24:12.355Z,77.51
2022-08-04T00:26:40.085Z,76.95
2022-08-04T00:29:06.593Z,77.60
2022-08-04T00:31:56.085Z,77.53
2022-08-04T00:34:21.185Z,77.36
2022-08-04T00:36:47.660Z,77.00
2022-08-04T00:39:16.991Z,77.19
2022-08-04T00:42:27.389Z,77.20
2022-08-04T00:45:30.299Z,77.97
2022-08-04T00:48:55.580Z,78.75
2022-08-04T00:51:33.876Z,79.05
2022-08-04T00:54:11.410Z,79.45
2022-08-04T00:56:43.928Z,79.22
2022-08-04T00:59:42.438Z,79.27
2022-08-04T01:02:29.020Z,78.84
2022-08-04T01:05:12.662Z,78.80
2022-08-04T01:08:11.052Z,79.17
2022-08-04T01:11:02.536Z,78.59
2022-08-04T01:13:42.750Z,78.91
2022-08-04T01:16:13.687Z,78.80
2022-08-04T01:19:01.898Z,79.05
2022-08-04T01:21:56.196Z,78.54
2022-08-04T01:24:41.716Z,78.74
2022-08-04T01:27:32.288Z,78.32
2022-08-04T01:30:02.339Z,78.65
2022-08-04T01:32:39.053Z,78.28
2022-08-04T01:35:15.451Z,78.77
2022-08-04T01:38:00.913Z,78.25
2022-08-04T01:40:28.039Z,78.29
2022-08-04T01:42:55.401Z,78.16
2022-08-04T01:45:24.416Z,78.27
2022-08-04T01:47:53.488Z,77.46
2022-08-04T01:50:21.072Z,77.70
2022-08-04T01:52:54.540Z,77.72
2022-08-04T01:55:21.079Z,77.82
2022-08-04T01:57:50.571Z,78.10
2022-08-04T02:00:20.439Z,77.16
2022-08-04T02:02:47.466Z,77.28
2022-08-04T02:05:21.214Z,78.02
2022-08-04T02:08:24.118Z,78.01
2022-08-04T02:11:16.099Z,77.69
2022-08-04T02:14:01.791Z,78.66
2022-08-04T02:16:52.674Z,78.78
2022-08-04T02:19:52.411Z,78.78
2022-08-04T02:22:22.522Z,78.52
2022-08-04T02:25:12.119Z,78.37
2022-08-04T02:28:16.038Z,78.28
2022-08-04T02:31:08.585Z,79.03
2022-08-04T02:33:39.006Z,78.94
2022-08-04T02:36:09.346Z,79.20
2022-08-04T02:39:04.931Z,79.21
2022-08-04T02:41:32.949Z,79.80
2022-08-04T02:44:01.923Z,79.39
2022-08-04T02:46:30.169Z,79.37
2022-08-04T02:48:57.281Z,79.13
2022-08-04T02:51:33.761Z,79.15
2022-08-04T02:54:03.006Z,79.26
2022-08-04T02:56:31.580Z,79.90
2022-08-04T02:59:02.448Z,79.94
2022-08-04T03:01:29.439Z,79.71
2022-08-04T03:04:34.666Z,80.46
2022-08-04T03:07:27.771Z,79.99
2022-08-04T03:10:31.741Z,80.12
2022-08-04T03:13:36.707Z,80.59
2022-08-04T03:16:36.725Z,80.15
2022-08-04T03:19:10.857Z,80.34
2022-08-04T03:22:15.622Z,81.37
2022-08-04T03:25:17.021Z,80.81
2022-08-04T03:28:27.017Z,80.80
2022-08-04T03:31:09.820Z,81.40
2022-08-04T03:34:03.386Z,80.23
2022-08-04T03:37:03.769Z,78.70
2022-08-04T03:39:54.141Z,78.38
2022-08-04T03:42:48.792Z,79.27
2022-08-04T03:45:49.490Z,80.04
2022-08-04T03:48:44.668Z,79.77
2022-08-04T03:51:54.900Z,79.89
2022-08-04T03:54:45.336Z,79.73
2022-08-04T03:57:26.870Z,80.30
2022-08-04T04:00:19.694Z,80.48
2022-08-04T04:03:28.724Z,80.43
2022-08-04T04:06:07.599Z,80.46
2022-08-04T04:09:06.060Z,80.54
2022-08-04T04:12:08.557Z,80.77
2022-08-04T04:14:48.903Z,81.04
2022-08-04T04:17:52.807Z,81.04
2022-08-04T04:20:54.986Z,81.56
2022-08-04T04:24:01.109Z,81.35
2022-08-04T04:26:56.396Z,82.18
2022-08-04T04:29:50.539Z,81.98
2022-08-04T04:32:44.172Z,82.14
2022-08-04T04:35:15.380Z,83.25
2022-08-04T04:38:01.494Z,82.86
2022-08-04T04:40:56.718Z,83.17
2022-08-04T04:43:50.875Z,83.39
2022-08-04T04:46:38.812Z,82.94
2022-08-04T04:49:38.974Z,83.42
2022-08-04T04:52:21.652Z,83.46
2022-08-04T04:54:48.121Z,83.27
2022-08-04T04:57:53.548Z,82.88
2022-08-04T05:00:12.137Z,82.93
2022-08-04T05:02:47.524Z,82.98
2022-08-04T05:05:28.179Z,83.59
2022-08-04T05:08:43.632Z,83.48
2022-08-04T05:11:38.105Z,83.34
2022-08-04T05:14:35.307Z,84.00
2022-08-04T05:17:03.648Z,83.80
2022-08-04T05:19:46.698Z,83.56
2022-08-04T05:22:22.281Z,83.52
2022-08-04T05:24:52.393Z,83.41
2022-08-04T05:27:29.990Z,83.48
2022-08-04T05:30:03.051Z,83.59
2022-08-04T05:32:37.384Z,84.31
2022-08-04T05:35:37.333Z,83.10
2022-08-04T05:38:18.456Z,82.07
2022-08-04T05:40:46.021Z,81.37
2022-08-04T05:43:14.071Z,80.97
2022-08-04T05:45:42.310Z,81.69
2022-08-04T05:48:09.583Z,79.98
2022-08-04T05:50:37.024Z,80.17
2022-08-04T05:53:05.068Z,78.45
2022-08-04T05:55:57.415Z,79.29
2022-08-04T05:58:20.009Z,77.34
2022-08-04T06:00:52.156Z,76.02
2022-08-04T06:03:21.281Z,75.59
2022-08-04T06:05:49.388Z,75.76
2022-08-04T06:08:16.043Z,76.17
2022-08-04T06:10:46.070Z,75.52
2022-08-04T06:13:48.017Z,76.10
2022-08-04T06:16:06.510Z,76.01
2022-08-04T06:20:01.045Z,76.22
2022-08-04T06:24:11.505Z,76.15
2022-08-04T06:26:38.461Z,76.52
2022-08-04T06:29:10.629Z,76.72
2022-08-04T06:32:30.769Z,77.23
2022-08-04T06:34:35.011Z,77.59
2022-08-04T06:37:02.861Z,77.89
2022-08-04T06:39:32.962Z,77.55
2022-08-04T06:42:21.846Z,77.56
2022-08-04T06:44:51.086Z,77.95
2022-08-04T06:47:22.207Z,78.09
2022-08-04T06:51:25.041Z,77.74
2022-08-04T06:52:39.729Z,77.96
2022-08-04T06:55:07.662Z,78.24
2022-08-04T06:57:35.447Z,78.05
2022-08-04T07:00:11.056Z,78.31
2022-08-04T07:02:43.148Z,77.93
2022-08-04T07:05:10.690Z,78.19
2022-08-04T07:07:56.961Z,78.31
2022-08-04T07:10:24.944Z,77.94
2022-08-04T07:12:53.016Z,78.79
2022-08-04T07:15:21.689Z,79.13
2022-08-04T07:17:49.585Z,78.56
2022-08-04T07:20:33.968Z,78.09
2022-08-04T07:23:06.044Z,77.71
2022-08-04T07:25:59.935Z,77.52
2022-08-04T07:28:23.189Z,77.99
2022-08-04T07:30:50.411Z,77.30
2022-08-04T07:33:18.304Z,77.85
2022-08-04T07:36:05.150Z,77.12
2022-08-04T07:38:48.193Z,76.76
2022-08-04T07:41:40.729Z,76.86
2022-08-04T07:44:08.755Z,76.54
2022-08-04T07:46:38.066Z,75.68
2022-08-04T07:49:05.892Z,75.55
2022-08-04T07:51:35.189Z,75.14
2022-08-04T07:54:05.290Z,74.89
2022-08-04T07:56:36.502Z,73.52
2022-08-04T07:59:04.585Z,73.62
2022-08-04T08:01:31.221Z,74.20
2022-08-04T08:04:00.468Z,74.09
2022-08-04T08:06:33.118Z,73.60
2022-08-04T08:09:02.096Z,72.12
2022-08-04T08:12:37.593Z,72.47
2022-08-04T08:14:25.656Z,71.64
2022-08-04T08:16:52.285Z,69.85
2022-08-04T08:19:18.761Z,69.98
2022-08-04T08:21:59.077Z,70.37
2022-08-04T08:24:31.290Z,68.82
2022-08-04T08:27:00.193Z,66.84
2022-08-04T08:29:29.275Z,65.25
2022-08-04T08:31:59.537Z,64.95
2022-08-04T08:34:31.153Z,63.46
2022-08-04T08:37:12.517Z,63.96
2022-08-04T08:39:46.934Z,62.79
2022-08-04T08:42:38.923Z,62.27
2022-08-04T08:45:43.066Z,62.28
2022-08-04T08:48:45.671Z,62.82
2022-08-04T08:51:28.537Z,60.09
2022-08-04T08:54:30.024Z,59.61
2022-08-04T08:57:33.503Z,58.59
2022-08-04T09:00:20.822Z,59.18
2022-08-04T09:03:31.445Z,57.83
2022-08-04T09:06:15.801Z,58.21
2022-08-04T09:08:54.021Z,57.79
2022-08-04T09:11:23.744Z,56.93
2022-08-04T09:13:56.536Z,55.71
2022-08-04T09:16:55.243Z,55.08
2022-08-04T09:19:53.042Z,54.88
2022-08-04T09:22:29.628Z,52.84
2022-08-04T09:25:07.881Z,52.50
2022-08-04T09:27:56.746Z,52.64
2022-08-04T09:30:31.631Z,52.85
2022-08-04T09:33:44.821Z,53.80
2022-08-04T09:36:25.989Z,52.24
2022-08-04T09:39:16.163Z,52.93
2022-08-04T09:42:14.602Z,52.82
2022-08-04T09:45:19.536Z,53.08
2022-08-04T09:48:00.742Z,54.71
2022-08-04T09:50:41.180Z,54.37
2022-08-04T09:53:25.991Z,52.80
2022-08-04T09:56:06.560Z,54.09
2022-08-04T09:58:50.324Z,54.85
2022-08-04T10:01:38.473Z,53.02
2022-08-04T10:04:09.870Z,53.53
2022-08-04T10:06:50.409Z,53.42
2022-08-04T10:09:43.283Z,52.41
2022-08-04T10:12:29.796Z,54.31
2022-08-04T10:15:15.116Z,54.23
2022-08-04T10:18:03.906Z,54.82
2022-08-04T10:21:11.599Z,53.75
2022-08-04T10:24:03.129Z,55.21
2022-08-04T10:26:58.445Z,53.13
2022-08-04T10:29:30.778Z,53.01
2022-08-04T10:32:04.328Z,53.55
2022-08-04T10:34:36.327Z,53.73
2022-08-04T10:37:20.176Z,52.67
2022-08-04T10:40:37.438Z,52.01
2022-08-04T10:43:22.795Z,52.58
2022-08-04T10:45:58.002Z,52.55
2022-08-04T10:48:35.766Z,54.46
2022-08-04T10:51:29.744Z,55.90
2022-08-04T10:54:00.122Z,51.79
2022-08-04T10:56:38.939Z,50.95
2022-08-04T10:59:26.451Z,50.16
2022-08-04T11:02:03.562Z,51.18
2022-08-04T11:04:44.351Z,51.75
2022-08-04T11:07:12.338Z,51.63
2022-08-04T11:09:42.132Z,53.39
2022-08-04T11:12:21.316Z,52.04
2022-08-04T11:15:20.901Z,52.43
2022-08-04T11:17:53.665Z,51.61
2022-08-04T11:20:42.797Z,51.93
2022-08-04T11:23:13.417Z,54.55
2022-08-04T11:26:12.685Z,52.42
2022-08-04T11:29:04.058Z,52.94
2022-08-04T11:31:35.740Z,50.83
2022-08-04T11:34:18.977Z,50.41
2022-08-04T11:37:17.730Z,50.37
2022-08-04T11:40:00.743Z,50.87
2022-08-04T11:42:30.681Z,49.68
2022-08-04T11:45:11.140Z,48.40
2022-08-04T11:48:00.568Z,48.45
2022-08-04T11:50:45.063Z,46.75
2022-08-04T11:53:19.255Z,45.78
2022-08-04T11:56:06.979Z,46.01
2022-08-04T11:58:35.441Z,46.71
2022-08-04T12:01:42.332Z,45.56
2022-08-04T12:04:37.814Z,45.38
2022-08-04T12:07:30.975Z,44.84
2022-08-04T12:10:41.039Z,45.20
2022-08-04T12:13:20.857Z,44.01
2022-08-04T12:15:53.301Z,46.75
2022-08-04T12:18:40.555Z,46.34
2022-08-04T12:21:36.521Z,48.78
2022-08-04T12:24:08.375Z,44.70
2022-08-04T12:26:43.887Z,46.09
2022-08-04T12:29:15.134Z,45.80
2022-08-04T12:31:49.356Z,46.44
2022-08-04T12:34:37.400Z,46.30
2022-08-04T12:37:56.602Z,46.09
2022-08-04T12:40:31.816Z,46.95
2022-08-04T12:43:08.906Z,44.10
2022-08-04T12:45:36.469Z,44.76
2022-08-04T12:48:06.315Z,46.60
2022-08-04T12:50:33.574Z,45.33
2022-08-04T12:53:02.984Z,45.43
2022-08-04T12:55:33.322Z,46.01
2022-08-04T12:58:02.780Z,45.06
2022-08-04T13:00:40.193Z,44.60
2022-08-04T13:03:11.670Z,46.04
2022-08-04T13:05:40.625Z,45.98
2022-08-04T13:08:09.611Z,45.47
2022-08-04T13:10:46.535Z,45.91
2022-08-04T13:13:19.220Z,46.21
2022-08-04T13:15:57.842Z,44.57
2022-08-04T13:21:50.318Z,46.21
2022-08-04T13:24:21.177Z,46.18
2022-08-04T13:27:03.631Z,47.27
2022-08-04T13:29:59.555Z,45.32
2022-08-04T13:30:24.088Z,45.70
2022-08-04T13:32:28.836Z,45.23
2022-08-04T13:34:57.327Z,44.98
2022-08-04T13:37:30.462Z,45.15
2022-08-04T13:40:00.174Z,44.04
2022-08-04T13:42:28.296Z,43.35
2022-08-04T13:44:58.536Z,43.38
2022-08-04T13:47:38.180Z,43.21
2022-08-04T13:50:29.578Z,43.02
2022-08-04T13:52:58.781Z,43.53
2022-08-04T13:55:36.010Z,44.89
2022-08-04T13:58:08.784Z,43.61
2022-08-04T14:00:46.630Z,46.17
2022-08-04T14:03:53.382Z,43.43
2022-08-04T14:06:48.964Z,44.45
2022-08-04T14:09:20.813Z,44.99
2022-08-04T14:12:08.809Z,45.96
2022-08-04T14:14:51.553Z,45.27
2022-08-04T14:17:23.672Z,46.84
2022-08-04T14:20:00.008Z,45.64
2022-08-04T14:22:26.398Z,45.43
2022-08-04T14:25:05.794Z,45.73
2022-08-04T14:27:44.172Z,44.61
2022-08-04T14:30:25.774Z,45.97
2022-08-04T14:33:56.482Z,44.91
2022-08-04T14:35:59.079Z,44.93
2022-08-04T14:38:41.961Z,45.63
2022-08-04T14:41:08.482Z,45.13
2022-08-04T14:43:42.973Z,43.91
2022-08-04T14:46:10.571Z,44.98
2022-08-04T14:48:41.089Z,44.71
2022-08-04T14:51:16.563Z,45.09
2022-08-04T14:53:52.505Z,45.26
2022-08-04T14:56:44.911Z,46.48
2022-08-04T14:59:09.334Z,47.65
2022-08-04T15:01:38.371Z,46.09
2022-08-04T15:04:06.213Z,44.82
2022-08-04T15:06:34.280Z,45.74
2022-08-04T15:09:07.518Z,44.97
2022-08-04T15:11:43.095Z,44.90
2022-08-04T15:14:10.155Z,45.40
2022-08-04T15:16:56.914Z,45.34
2022-08-04T15:19:23.975Z,44.47
2022-08-04T15:21:51.145Z,43.77
2022-08-04T15:24:17.711Z,44.78
2022-08-04T15:26:52.983Z,44.66
2022-08-04T15:29:27.558Z,44.38
2022-08-04T15:32:05.554Z,45.30
2022-08-04T15:34:46.006Z,46.49
2022-08-04T15:37:17.753Z,45.84
2022-08-04T15:39:51.511Z,45.97
2022-08-04T15:42:35.791Z,45.75
2022-08-04T15:46:32.940Z,45.28
2022-08-04T15:48:13.527Z,46.07
2022-08-04T15:50:55.512Z,45.85
2022-08-04T15:53:22.872Z,45.51
2022-08-04T15:55:50.093Z,47.17
2022-08-04T15:58:20.086Z,47.06
2022-08-04T16:00:55.434Z,48.10
2022-08-04T16:03:54.303Z,46.84
2022-08-04T16:06:20.603Z,46.36
2022-08-04T16:08:57.611Z,47.19
2022-08-04T16:11:30.932Z,47.80
2022-08-04T16:14:00.590Z,48.55
2022-08-04T16:16:51.008Z,48.02
2022-08-04T16:19:35.240Z,48.19
2022-08-04T16:22:04.336Z,47.63
2022-08-04T16:24:41.698Z,48.74
2022-08-04T16:27:09.615Z,48.72
2022-08-04T16:29:44.536Z,48.55
2022-08-04T16:32:13.799Z,48.28
2022-08-04T16:34:56.505Z,47.83
2022-08-04T16:37:38.169Z,48.75
2022-08-04T16:40:37.154Z,49.91
2022-08-04T16:43:07.842Z,50.30
2022-08-04T16:45:43.492Z,49.85
2022-08-04T16:48:11.652Z,50.39
2022-08-04T16:51:05.104Z,50.71
2022-08-04T16:54:04.349Z,50.37
2022-08-04T16:56:34.170Z,50.66
2022-08-04T16:59:09.163Z,51.44
2022-08-04T17:01:36.891Z,50.08
2022-08-04T17:04:05.253Z,50.70
2022-08-04T17:06:42.842Z,50.82
2022-08-04T17:09:14.817Z,51.48
2022-08-04T17:11:43.331Z,52.48
2022-08-04T17:14:10.744Z,53.01
2022-08-04T17:16:42.971Z,52.69
2022-08-04T17:19:23.750Z,52.68
2022-08-04T17:22:17.596Z,52.71
2022-08-04T17:24:44.240Z,53.27
2022-08-04T17:28:09.650Z,53.76
2022-08-04T17:29:57.693Z,54.13
2022-08-04T17:32:24.677Z,53.69
2022-08-04T17:34:54.171Z,53.73
2022-08-04T17:37:38.932Z,54.53
2022-08-04T17:40:14.019Z,56.32
2022-08-04T17:42:41.762Z,56.83
2022-08-04T17:45:49.173Z,57.06
2022-08-04T17:47:56.826Z,58.21
2022-08-04T17:50:27.767Z,58.62
2022-08-04T17:53:11.778Z,59.30
2022-08-04T17:55:41.678Z,56.07
2022-08-04T17:58:21.097Z,55.48
2022-08-04T18:00:51.191Z,55.46
2022-08-04T18:03:29.078Z,56.40
2022-08-04T18:06:02.270Z,57.13
2022-08-04T18:08:45.426Z,58.88
2022-08-04T18:11:22.254Z,59.91
2022-08-04T18:13:57.087Z,61.01
2022-08-04T18:16:24.049Z,61.71
2022-08-04T18:19:14.455Z,61.96
2022-08-04T18:24:56.271Z,62.04
2022-08-04T18:27:24.351Z,60.95
2022-08-04T18:30:38.533Z,61.55
2022-08-04T18:33:04.217Z,61.97
2022-08-04T18:36:31.252Z,64.08
2022-08-04T18:38:22.420Z,63.13
2022-08-04T18:40:53.627Z,63.81
2022-08-04T18:43:28.273Z,64.02
2022-08-04T18:45:58.120Z,63.29
2022-08-04T18:48:35.985Z,64.67
2022-08-04T18:51:10.889Z,66.58
2022-08-04T18:53:55.086Z,66.16
2022-08-04T18:56:31.720Z,66.69
2022-08-04T18:59:04.392Z,67.19
2022-08-04T19:02:09.172Z,67.67
2022-08-04T19:04:34.149Z,68.12
2022-08-04T19:07:28.687Z,68.54
2022-08-04T19:09:54.232Z,68.51
2022-08-04T19:12:27.063Z,69.41
2022-08-04T19:14:58.667Z,69.54
2022-08-04T19:17:52.831Z,70.26
2022-08-04T19:20:15.827Z,69.93
2022-08-04T19:24:11.679Z,69.09
2022-08-04T19:26:02.649Z,69.97
2022-08-04T19:28:29.734Z,70.17
2022-08-04T19:30:58.526Z,69.65
2022-08-04T19:33:25.617Z,69.61
2022-08-04T19:35:57.042Z,70.54
2022-08-04T19:38:23.709Z,70.06
2022-08-04T19:40:52.488Z,68.80
2022-08-04T19:43:20.734Z,68.64
2022-08-04T19:45:50.018Z,68.93
2022-08-04T19:48:19.631Z,69.93
2022-08-04T19:50:47.068Z,69.86
2022-08-04T19:53:19.555Z,69.76
2022-08-04T19:55:49.686Z,70.02
2022-08-04T19:58:17.756Z,69.71
2022-08-04T20:00:44.586Z,69.26
2022-08-04T20:03:20.279Z,69.07
2022-08-04T20:05:53.273Z,69.02
2022-08-04T20:08:23.808Z,68.61
2022-08-04T20:10:51.888Z,69.33
2022-08-04T20:13:19.996Z,69.23
2022-08-04T20:15:55.570Z,69.50
2022-08-04T20:18:35.976Z,68.79
2022-08-04T20:21:18.814Z,68.96
2022-08-04T20:23:48.763Z,69.64
2022-08-04T20:26:16.732Z,69.66
2022-08-04T20:28:45.747Z,69.42
2022-08-04T20:31:18.159Z,69.79
2022-08-04T20:33:53.571Z,69.82
2022-08-04T20:36:21.993Z,69.88
2022-08-04T20:38:52.733Z,70.06
2022-08-04T20:41:20.641Z,69.07
2022-08-04T20:43:49.794Z,69.16
2022-08-04T20:46:28.948Z,70.06
2022-08-04T20:48:56.383Z,68.88
2022-08-04T20:51:25.876Z,68.33
2022-08-04T20:53:58.811Z,68.72
2022-08-04T20:56:30.773Z,69.38
2022-08-04T20:58:59.260Z,69.40
2022-08-04T21:01:27.062Z,70.08
2022-08-04T21:04:28.163Z,69.04
2022-08-04T21:07:05.914Z,68.16
2022-08-04T21:09:38.210Z,67.20
2022-08-04T21:12:10.999Z,67.16
2022-08-04T21:14:59.859Z,67.09
2022-08-04T21:17:59.163Z,66.42
2022-08-04T21:20:13.933Z,66.76
2022-08-04T21:22:40.780Z,66.85
2022-08-04T21:25:14.579Z,66.60
2022-08-04T21:27:43.307Z,67.76
2022-08-04T21:32:56.979Z,66.66
2022-08-04T21:35:36.831Z,66.49
2022-08-04T21:38:13.969Z,66.46
2022-08-04T21:40:54.647Z,66.19
2022-08-04T21:43:23.690Z,68.39
2022-08-04T21:45:54.940Z,70.60
2022-08-04T21:48:22.210Z,71.95
2022-08-04T21:50:50.310Z,72.67
2022-08-04T21:53:19.577Z,71.36
2022-08-04T21:56:04.808Z,69.79
2022-08-04T21:58:33.242Z,68.55
2022-08-04T22:00:59.942Z,68.87
2022-08-04T22:03:53.075Z,69.16
2022-08-04T22:06:17.406Z,70.12
2022-08-04T22:08:49.442Z,69.49
2022-08-04T22:11:27.499Z,69.55
2022-08-04T22:14:14.157Z,70.08
2022-08-04T22:16:40.644Z,71.42
2022-08-04T22:19:08.819Z,72.25
2022-08-04T22:21:39.080Z,72.63
2022-08-04T22:24:13.724Z,73.23
2022-08-04T22:26:41.186Z,73.04
2022-08-04T22:29:14.104Z,73.36
2022-08-04T22:31:53.123Z,73.71
2022-08-04T22:34:23.799Z,73.72
2022-08-04T22:36:50.495Z,73.28
2022-08-04T22:39:17.371Z,73.29
2022-08-04T22:41:48.829Z,73.44
2022-08-04T22:44:33.429Z,74.77
2022-08-04T22:47:00.819Z,74.85
2022-08-04T22:49:31.365Z,74.46
2022-08-04T22:51:59.006Z,74.69
2022-08-04T22:54:26.158Z,74.70
2022-08-04T22:56:56.005Z,73.98
2022-08-04T22:59:23.841Z,74.19
2022-08-04T23:02:01.109Z,74.54
2022-08-04T23:04:32.938Z,74.17
2022-08-04T23:07:00.935Z,74.10
2022-08-04T23:09:50.842Z,74.33
2022-08-04T23:12:27.931Z,74.07
2022-08-04T23:14:58.395Z,73.92
2022-08-04T23:17:27.341Z,74.68
2022-08-04T23:19:55.433Z,74.81
2022-08-04T23:22:37.458Z,75.06
2022-08-04T23:25:16.217Z,74.47
2022-08-04T23:27:51.289Z,74.52
2022-08-04T23:30:20.868Z,74.66
2022-08-04T23:32:48.630Z,75.33
2022-08-04T23:35:15.421Z,75.06
2022-08-04T23:37:56.315Z,75.03
2022-08-04T23:40:33.435Z,74.82
2022-08-04T23:43:17.094Z,74.16
2022-08-04T23:46:06.486Z,74.69
2022-08-04T23:48:33.168Z,74.57
2022-08-04T23:51:19.455Z,74.55
2022-08-04T23:54:03.017Z,74.94
2022-08-04T23:56:32.129Z,74.48
2022-08-04T23:59:00.221Z,74.34
